Aviation Digital Data Service (ADDS)

Output produced by METARs form (1338 UTC 30 October 2014)
found at http://aviationweather.gov/adds/metars/
 
KCRG 301120Z 3012/3112 33004KT P6SM SCT010 SCT020 
     FM301700 03006KT P6SM VCSH SCT020 BKN040 
     FM310100 35006KT P6SM SCT020 BKN040